Sydney Kingsford Smith International Airport
YSSY : rendu visible

Aérodrome :











RETROUVEZ-NOUS SUR...

 
LOGIN :

S'inscrire | Disclaimer

   EN    FR    IT 

 









Légende :    VFR   VFR Marginal   IFR   IFR Intensif   IFR Très Intensif
Visi : 
Plafond : 
>= 8 km
>= 3000ft
5 à 8 km
1000 à 3000 ft
1500m à 5 km
500 à 1000 ft
800 à 1500m
200 à 500 ft
< 800m
< 200 ft
Symboles :   Orages  Brouillard  Fortes neiges  Fortes précipitations  Vent > 20 kt






- Altitude de l'aérodrome : 21 ft
- Code IATA : SYD


YSSY - Sydney Kingsford Smith International

DERNIER METAR :
  • 021200Z 27015KT CAVOK 10/04 Q1018 FM1200 MOD TURB BLW 5000FT

METARs EXPIRÉS :
  • 021130Z 27016KT CAVOK 10/03 Q1018 FM1130 MOD TURB BLW 5000FT
  • 021100Z 27015KT CAVOK 11/04 Q1018 FM1100 MOD TURB BLW 5000FT
  • 021030Z 27015KT CAVOK 11/03 Q1017 FM1030 MOD TURB BLW 5000FT
  • 021000Z 27014KT CAVOK 11/04 Q1017 FM1000 MOD TURB BLW 5000FT
  • 020930Z 26016G26KT 9999 FEW045 11/04 Q1018 FM1200 MOD TURB BLW 5000FT

TAF TAF YSSY
Valide du 02 à 12h jusqu'au 03 à 18h UTC


021100Z 0212/0318 27015KT CAVOK
FM022100 24015KT CAVOK
FM030200 21020G30KT CAVOK
FM030900 24013KT 9999 SCT030
FIR YMMM / Océanie



MET'MAP, la Météo Aéronautique d'un coup d'oeil ! - Copyright ORBIFLY Décembre 2007 - Disclaimer

ORBIFLY MET'MAP TEAM :

Programmation & Développement : Alexandra Zaïnal
Sur une idée originale de : Baudouin d'Aumeries
Assistance à la programmation : Marc-Olivier Méhu
Soutien technique & logistique : Manuel Goepfert

Contact : metmap@orbifly.com




SOURCES & CREDITS :

   NOAA       Earth
Advisory